Time;durP1;ratioP1;P1;durP2;ratioP2;P2;SDS_P1;SDS_P2;PMS_P1;PMS_P2;Temp;Humidity;BMP_temperature;BMP_pressure;BME280_temperature;BME280_humidity;BME280_pressure;Samples;Min_cycle;Max_cycle;Signal;HPM_P1;HPM_P2
2020/12/14 00:04:53;;;;;;;4.25;2.05;;;8.50;99.90;;;;;;6009133;23;20162;-84
2020/12/14 00:08:43;;;;;;;3.58;1.70;;;8.50;99.90;;;;;;6021563;23;20168;-84
2020/12/14 00:12:08;;;;;;;6.15;2.15;;;8.50;99.90;;;;;;6065645;23;20736;-84
2020/12/14 00:15:23;;;;;;;5.45;1.80;;;8.50;99.90;;;;;;6179810;23;20517;-84
2020/12/14 00:18:24;;;;;;;3.00;1.55;;;8.60;99.90;;;;;;6071410;23;20364;-84
2020/12/14 00:22:01;;;;;;;6.45;1.90;;;8.60;99.90;;;;;;6093522;23;20161;-84
2020/12/14 00:24:50;;;;;;;5.45;1.70;;;8.60;99.90;;;;;;6202424;23;20154;-84
2020/12/14 00:27:40;;;;;;;5.88;2.05;;;8.70;99.90;;;;;;6208856;23;20232;-84
2020/12/14 00:30:12;;;;;;;4.95;2.13;;;8.70;99.90;;;;;;6183685;23;20169;-84
2020/12/14 00:32:52;;;;;;;2.50;1.50;;;8.70;99.90;;;;;;6185917;23;20186;-84
2020/12/14 00:35:47;;;;;;;3.25;1.58;;;8.70;99.90;;;;;;6209853;23;20134;-84
2020/12/14 00:38:32;;;;;;;6.90;2.40;;;8.70;99.90;;;;;;6159992;23;20149;-84
2020/12/14 00:41:15;;;;;;;6.82;1.95;;;8.50;99.90;;;;;;6203891;23;20157;-85
2020/12/14 00:44:02;;;;;;;3.10;1.67;;;8.60;99.90;;;;;;6206198;23;20166;-83
2020/12/14 00:46:39;;;;;;;3.58;2.15;;;8.60;99.90;;;;;;6202899;23;20169;-84
2020/12/14 00:49:14;;;;;;;5.03;1.80;;;8.60;99.90;;;;;;6203738;23;20126;-85
2020/12/14 00:51:44;;;;;;;4.18;1.65;;;8.70;99.90;;;;;;6202322;23;20130;-84
2020/12/14 00:54:14;;;;;;;2.60;1.13;;;8.70;99.90;;;;;;6178926;23;20157;-85
2020/12/14 00:56:41;;;;;;;3.95;1.55;;;8.70;99.90;;;;;;6206075;23;20150;-85
2020/12/14 00:59:18;;;;;;;4.80;1.77;;;8.80;99.90;;;;;;6192988;23;20192;-85
2020/12/14 01:01:52;;;;;;;4.45;1.70;;;8.70;99.90;;;;;;6187349;23;20141;-85
2020/12/14 01:04:27;;;;;;;2.47;1.48;;;8.70;99.90;;;;;;6187008;23;20169;-85
2020/12/14 01:07:16;;;;;;;3.55;1.63;;;8.80;99.90;;;;;;6186843;23;20219;-84
2020/12/14 01:09:57;;;;;;;3.75;1.90;;;8.80;99.90;;;;;;6186098;23;20228;-84
2020/12/14 01:12:29;;;;;;;2.17;1.10;;;8.80;99.90;;;;;;6186798;23;20130;-84
2020/12/14 01:15:31;;;;;;;6.30;1.65;;;8.80;99.90;;;;;;6186524;23;20192;-84
2020/12/14 01:18:05;;;;;;;3.85;1.20;;;8.80;99.90;;;;;;6159592;23;20134;-85
2020/12/14 01:20:31;;;;;;;4.10;1.60;;;8.80;99.90;;;;;;6158969;23;20180;-85
2020/12/14 01:23:00;;;;;;;3.33;1.23;;;8.90;99.90;;;;;;6185800;23;20181;-85
2020/12/14 01:25:31;;;;;;;4.00;1.25;;;8.90;99.90;;;;;;6185141;23;20154;-85
2020/12/14 01:28:11;;;;;;;6.00;1.55;;;8.90;99.90;;;;;;6185005;23;20165;-85
2020/12/14 01:30:49;;;;;;;2.65;1.35;;;8.90;99.90;;;;;;6185468;23;20725;-84
2020/12/14 01:33:18;;;;;;;3.95;1.30;;;8.90;99.90;;;;;;6185792;23;20480;-84
2020/12/14 01:35:57;;;;;;;2.33;1.35;;;8.90;99.90;;;;;;6192424;23;20134;-85
2020/12/14 01:38:33;;;;;;;4.75;1.45;;;8.80;99.90;;;;;;6186375;23;20154;-85
2020/12/14 01:41:10;;;;;;;5.00;1.35;;;8.90;99.90;;;;;;6187839;23;20491;-85
2020/12/14 01:43:41;;;;;;;1.70;1.10;;;8.80;99.90;;;;;;6184300;23;20184;-85
2020/12/14 01:46:32;;;;;;;7.13;2.30;;;8.90;99.90;;;;;;6185387;23;20221;-85
2020/12/14 01:49:21;;;;;;;5.05;1.70;;;8.80;99.90;;;;;;6161461;23;20561;-85
2020/12/14 01:52:04;;;;;;;6.10;1.20;;;8.80;99.90;;;;;;6184779;23;20607;-85
2020/12/14 01:54:48;;;;;;;5.10;1.30;;;8.90;99.90;;;;;;6184328;23;20230;-85
2020/12/14 01:57:17;;;;;;;7.13;1.25;;;8.80;99.90;;;;;;6182572;23;20130;-86
2020/12/14 01:59:53;;;;;;;10.02;1.85;;;8.80;99.90;;;;;;6183360;23;20177;-85
2020/12/14 02:02:29;;;;;;;2.25;1.40;;;8.80;99.90;;;;;;6183097;23;20150;-85
2020/12/14 02:05:08;;;;;;;3.55;1.63;;;8.80;99.90;;;;;;6183948;23;20134;-85
2020/12/14 02:07:43;;;;;;;2.92;1.33;;;8.70;99.90;;;;;;6133935;23;20183;-86
2020/12/14 02:10:24;;;;;;;2.70;1.20;;;8.80;99.90;;;;;;6184108;23;20220;-86
2020/12/14 02:13:15;;;;;;;10.77;2.78;;;8.80;99.90;;;;;;6190116;23;20591;-85
2020/12/14 02:15:54;;;;;;;3.47;1.60;;;8.70;99.90;;;;;;6158072;23;20227;-85
2020/12/14 02:18:20;;;;;;;4.93;1.77;;;8.70;99.90;;;;;;6184070;23;20150;-85
2020/12/14 02:20:51;;;;;;;2.70;1.30;;;8.70;99.90;;;;;;6185106;23;20161;-85
2020/12/14 02:23:21;;;;;;;3.80;1.40;;;8.70;99.90;;;;;;6184869;23;20130;-84
2020/12/14 02:25:53;;;;;;;4.70;1.08;;;8.70;99.90;;;;;;6184474;23;20490;-84
2020/12/14 02:28:28;;;;;;;7.05;1.65;;;8.80;99.90;;;;;;6184170;23;20137;-84
2020/12/14 02:31:04;;;;;;;3.60;1.08;;;8.80;99.90;;;;;;6158153;23;20166;-84
2020/12/14 02:33:49;;;;;;;4.68;1.30;;;8.80;99.90;;;;;;6184754;23;20525;-84
2020/12/14 02:36:29;;;;;;;3.83;1.50;;;8.80;99.90;;;;;;6186929;23;20156;-85
2020/12/14 02:39:11;;;;;;;2.90;1.20;;;8.80;99.90;;;;;;6186597;23;20184;-85
2020/12/14 02:41:39;;;;;;;1.67;1.00;;;8.80;99.90;;;;;;6186025;23;20256;-79
2020/12/14 02:44:05;;;;;;;2.83;1.20;;;8.70;99.90;;;;;;6185010;23;20158;-79
2020/12/14 02:46:31;;;;;;;2.40;1.17;;;8.70;99.90;;;;;;6183450;23;20569;-79
2020/12/14 02:48:56;;;;;;;6.30;1.87;;;8.70;99.90;;;;;;6187764;23;20149;-79
2020/12/14 02:51:22;;;;;;;7.73;1.70;;;8.70;99.90;;;;;;6183107;23;20620;-79
2020/12/14 02:53:48;;;;;;;1.70;1.00;;;8.60;99.90;;;;;;6183500;23;20229;-79
2020/12/14 02:56:16;;;;;;;2.17;1.30;;;8.70;99.90;;;;;;6182464;23;20241;-79
2020/12/14 02:58:43;;;;;;;4.70;1.10;;;8.70;99.90;;;;;;6155355;23;20146;-78
2020/12/14 03:01:09;;;;;;;2.30;1.10;;;8.60;99.90;;;;;;6182050;23;20251;-79
2020/12/14 03:03:35;;;;;;;3.60;1.52;;;8.60;99.90;;;;;;6182646;23;20594;-79
2020/12/14 03:06:01;;;;;;;3.00;1.30;;;8.60;99.90;;;;;;6182566;23;20156;-78
2020/12/14 03:08:27;;;;;;;3.27;1.00;;;8.60;99.90;;;;;;6181870;23;20221;-78
2020/12/14 03:10:52;;;;;;;3.27;1.63;;;8.50;99.90;;;;;;6181580;23;20162;-78
2020/12/14 03:13:18;;;;;;;5.53;1.60;;;8.50;99.90;;;;;;6182415;23;20152;-79
2020/12/14 03:15:44;;;;;;;4.57;2.10;;;8.50;99.90;;;;;;6182251;23;20537;-78
2020/12/14 03:18:10;;;;;;;3.83;1.60;;;8.50;99.90;;;;;;6182347;23;20778;-79
2020/12/14 03:20:36;;;;;;;3.77;1.70;;;8.40;99.90;;;;;;6182173;23;20173;-79
2020/12/14 03:23:01;;;;;;;2.37;1.27;;;8.50;99.90;;;;;;6182465;23;20487;-79
2020/12/14 03:25:27;;;;;;;5.50;1.83;;;8.40;99.90;;;;;;6189776;23;20592;-79
2020/12/14 03:27:53;;;;;;;3.20;1.03;;;8.40;99.90;;;;;;6182995;23;20663;-78
2020/12/14 03:30:19;;;;;;;6.23;1.07;;;8.40;99.90;;;;;;6181322;23;20173;-79
2020/12/14 03:32:45;;;;;;;4.90;1.30;;;8.40;99.90;;;;;;6182372;23;20225;-79
2020/12/14 03:35:11;;;;;;;2.17;1.17;;;8.50;99.90;;;;;;6182195;23;20169;-79
2020/12/14 03:37:37;;;;;;;2.63;1.75;;;8.50;99.90;;;;;;6180056;23;21150;-79
2020/12/14 03:40:04;;;;;;;7.70;1.43;;;8.50;99.90;;;;;;6181681;23;20194;-78
2020/12/14 03:42:30;;;;;;;3.65;1.50;;;8.40;99.90;;;;;;6130960;23;20154;-79
2020/12/14 03:44:56;;;;;;;5.27;1.57;;;8.50;99.90;;;;;;6181937;23;20166;-78
2020/12/14 03:47:28;;;;;;;2.55;1.35;;;8.50;99.90;;;;;;6181337;23;20573;-79
2020/12/14 03:49:53;;;;;;;5.88;2.28;;;8.50;99.90;;;;;;6131234;23;20173;-79
2020/12/14 03:52:19;;;;;;;4.03;1.40;;;8.50;99.90;;;;;;6181723;23;20152;-79
2020/12/14 03:54:45;;;;;;;4.47;1.37;;;8.50;99.90;;;;;;6155503;23;20173;-79
2020/12/14 03:57:10;;;;;;;2.03;1.30;;;8.60;99.90;;;;;;6181901;23;20184;-79
2020/12/14 03:59:36;;;;;;;2.23;1.23;;;8.60;99.90;;;;;;6181974;23;20195;-79
2020/12/14 04:02:02;;;;;;;2.53;1.00;;;8.60;99.90;;;;;;6182280;23;20559;-79
2020/12/14 04:04:28;;;;;;;3.13;1.30;;;8.60;99.90;;;;;;6188097;23;20146;-79
2020/12/14 04:06:57;;;;;;;3.40;1.30;;;8.60;99.90;;;;;;6181926;23;20569;-79
2020/12/14 04:09:23;;;;;;;3.60;1.55;;;8.70;99.90;;;;;;6180876;23;20532;-79
2020/12/14 04:11:49;;;;;;;3.30;1.10;;;8.70;99.90;;;;;;6181653;23;20173;-78
2020/12/14 04:14:22;;;;;;;3.30;1.10;;;8.70;99.90;;;;;;6181991;23;20497;-79
2020/12/14 04:16:52;;;;;;;3.50;1.13;;;8.80;99.90;;;;;;6182090;23;20153;-79
2020/12/14 04:19:22;;;;;;;2.17;1.15;;;8.70;99.90;;;;;;6181108;23;20548;-79
2020/12/14 04:21:50;;;;;;;3.47;1.30;;;8.70;99.90;;;;;;6181632;23;20533;-79
2020/12/14 04:24:16;;;;;;;2.13;1.20;;;8.80;99.90;;;;;;6181591;23;20177;-79
2020/12/14 04:26:42;;;;;;;2.72;0.90;;;8.70;99.90;;;;;;6181849;23;20514;-79
2020/12/14 04:29:08;;;;;;;5.72;1.73;;;8.70;99.90;;;;;;6182697;23;20146;-79
2020/12/14 04:31:34;;;;;;;3.28;1.20;;;8.70;99.90;;;;;;6156936;23;20176;-79
2020/12/14 04:34:01;;;;;;;3.13;1.00;;;8.70;99.90;;;;;;6183857;23;20221;-79
2020/12/14 04:36:28;;;;;;;3.05;1.20;;;8.70;99.90;;;;;;6184056;23;20228;-79
2020/12/14 04:38:55;;;;;;;7.38;1.30;;;8.70;99.90;;;;;;6183270;23;20477;-79
2020/12/14 04:41:22;;;;;;;5.35;1.67;;;8.70;99.90;;;;;;6188682;23;20193;-79
2020/12/14 04:43:50;;;;;;;2.40;1.30;;;8.70;99.90;;;;;;6157154;23;20220;-79
2020/12/14 04:46:18;;;;;;;2.38;1.08;;;8.70;99.90;;;;;;6183956;23;20182;-79
2020/12/14 04:48:45;;;;;;;3.60;1.92;;;8.80;99.90;;;;;;6183101;23;20141;-79
2020/12/14 04:51:11;;;;;;;3.28;1.20;;;8.70;99.90;;;;;;6183168;23;20166;-79
2020/12/14 04:53:40;;;;;;;3.60;1.15;;;8.80;99.90;;;;;;6183782;23;20146;-79
2020/12/14 04:56:09;;;;;;;4.15;1.70;;;8.80;99.90;;;;;;6157459;23;20200;-79
2020/12/14 04:58:36;;;;;;;4.55;1.33;;;8.80;99.90;;;;;;6156746;23;20150;-79
2020/12/14 05:01:03;;;;;;;3.55;1.40;;;8.70;99.90;;;;;;6183410;23;20499;-80
2020/12/14 05:03:29;;;;;;;1.90;1.42;;;8.70;99.90;;;;;;6183984;23;20154;-79
2020/12/14 05:05:56;;;;;;;2.93;1.17;;;8.70;99.90;;;;;;6183813;23;20511;-79
2020/12/14 05:08:31;;;;;;;3.97;1.20;;;8.70;99.90;;;;;;6183028;23;20604;-79
2020/12/14 05:10:57;;;;;;;2.70;1.25;;;8.70;99.90;;;;;;6156790;23;20172;-79
2020/12/14 05:13:27;;;;;;;3.13;1.20;;;8.70;99.90;;;;;;6157431;23;20142;-79
2020/12/14 05:15:54;;;;;;;2.35;1.33;;;8.60;99.90;;;;;;6183832;23;20551;-79
2020/12/14 05:18:23;;;;;;;4.13;1.30;;;8.70;99.90;;;;;;6188614;23;20142;-78
2020/12/14 05:21:18;;;;;;;4.75;1.40;;;8.70;99.90;;;;;;6182854;23;20166;-78
2020/12/14 05:23:44;;;;;;;4.50;1.80;;;8.70;99.90;;;;;;6170206;23;20203;-78
2020/12/14 05:26:14;;;;;;;2.63;1.45;;;8.80;99.90;;;;;;6183309;23;20150;-78
2020/12/14 05:28:41;;;;;;;3.08;1.30;;;8.80;99.90;;;;;;6182931;23;20126;-79
2020/12/14 05:31:18;;;;;;;2.53;1.03;;;8.80;99.90;;;;;;6183026;23;20162;-79
2020/12/14 05:33:43;;;;;;;3.55;1.42;;;8.80;99.90;;;;;;6156766;23;20568;-79
2020/12/14 05:36:16;;;;;;;2.20;1.20;;;8.90;99.90;;;;;;6183477;23;20145;-79
2020/12/14 05:38:42;;;;;;;3.85;1.50;;;8.90;99.90;;;;;;6182402;23;20546;-78
2020/12/14 05:41:07;;;;;;;4.40;1.53;;;8.90;99.90;;;;;;6182770;23;20221;-78
2020/12/14 05:43:34;;;;;;;4.80;1.53;;;8.90;99.90;;;;;;6183188;23;20557;-78
2020/12/14 05:46:17;;;;;;;3.08;1.45;;;8.80;99.90;;;;;;6183207;23;20522;-78
2020/12/14 05:48:43;;;;;;;3.95;1.00;;;8.90;99.90;;;;;;6182228;23;20141;-78
2020/12/14 05:51:10;;;;;;;3.28;1.23;;;8.90;99.90;;;;;;6131758;23;20804;-78
2020/12/14 05:53:50;;;;;;;3.72;1.35;;;8.90;99.90;;;;;;6183536;23;20157;-79
2020/12/14 05:56:17;;;;;;;1.50;1.05;;;8.90;99.90;;;;;;6187309;23;20134;-78
2020/12/14 05:58:44;;;;;;;4.10;1.30;;;8.90;99.90;;;;;;6156382;23;20141;-78
2020/12/14 06:01:10;;;;;;;2.95;1.42;;;8.90;99.90;;;;;;6182614;23;20228;-78
2020/12/14 06:03:37;;;;;;;3.38;1.15;;;8.90;99.90;;;;;;6182905;23;20146;-78
2020/12/14 06:06:13;;;;;;;1.42;0.90;;;8.90;99.90;;;;;;6182825;23;20169;-78
2020/12/14 06:08:45;;;;;;;3.78;0.90;;;8.90;99.90;;;;;;6182676;23;20138;-79
2020/12/14 06:11:28;;;;;;;3.42;1.30;;;8.90;99.90;;;;;;6182841;23;20169;-78
2020/12/14 06:13:57;;;;;;;3.92;1.40;;;8.90;99.90;;;;;;6183148;23;20655;-79
2020/12/14 06:16:28;;;;;;;3.20;1.10;;;9.00;99.90;;;;;;6182644;23;20149;-79
2020/12/14 06:18:55;;;;;;;3.28;1.52;;;9.00;99.90;;;;;;6182427;23;20187;-79
2020/12/14 06:21:27;;;;;;;2.53;1.10;;;9.00;99.90;;;;;;6181567;23;20173;-78
2020/12/14 06:23:55;;;;;;;3.85;1.40;;;9.10;99.90;;;;;;6182486;23;20169;-79
2020/12/14 06:26:23;;;;;;;3.58;1.52;;;9.00;99.90;;;;;;6182365;23;20264;-78
2020/12/14 06:28:50;;;;;;;2.58;1.45;;;9.00;99.90;;;;;;6182299;23;20631;-79
2020/12/14 06:31:39;;;;;;;3.95;1.40;;;9.10;99.90;;;;;;6186010;23;20165;-78
2020/12/14 06:34:31;;;;;;;16.08;2.35;;;9.10;99.90;;;;;;6183078;23;20130;-79
2020/12/14 06:36:57;;;;;;;7.40;1.30;;;9.10;99.90;;;;;;6182862;23;20452;-78
2020/12/14 06:39:41;;;;;;;1.77;1.25;;;9.10;99.90;;;;;;6182667;23;20174;-78
2020/12/14 06:42:07;;;;;;;2.10;1.10;;;9.10;99.90;;;;;;6183240;23;20177;-79
2020/12/14 06:44:33;;;;;;;2.03;1.07;;;9.10;99.90;;;;;;6183287;23;20161;-77
2020/12/14 06:47:12;;;;;;;9.13;1.60;;;9.10;99.90;;;;;;6157088;23;20185;-78
2020/12/14 06:49:38;;;;;;;3.33;1.73;;;9.10;99.90;;;;;;6183018;23;20631;-78
2020/12/14 06:52:04;;;;;;;3.60;1.50;;;9.20;99.90;;;;;;6182411;23;20153;-76
2020/12/14 06:54:47;;;;;;;4.00;1.40;;;9.00;99.90;;;;;;6183116;23;20522;-78
2020/12/14 06:57:15;;;;;;;2.20;1.15;;;9.10;99.90;;;;;;6156099;23;20603;-78
2020/12/14 06:59:49;;;;;;;3.80;1.00;;;9.20;99.90;;;;;;6182486;23;20577;-78
2020/12/14 07:02:15;;;;;;;1.95;1.02;;;9.20;99.90;;;;;;6182382;23;20145;-78
2020/12/14 07:04:42;;;;;;;1.83;1.40;;;9.20;99.90;;;;;;6182573;23;20145;-79
2020/12/14 07:07:11;;;;;;;4.43;1.33;;;9.20;99.90;;;;;;6156451;23;20227;-78
2020/12/14 07:09:40;;;;;;;4.68;1.45;;;9.30;99.90;;;;;;6188162;23;20549;-79
2020/12/14 07:12:09;;;;;;;4.13;1.42;;;9.20;99.90;;;;;;6183035;23;20130;-79
2020/12/14 07:14:44;;;;;;;4.55;1.65;;;9.30;99.90;;;;;;6183561;23;20150;-78
2020/12/14 07:17:24;;;;;;;5.93;1.00;;;9.20;99.90;;;;;;6184596;23;20138;-78
2020/12/14 07:19:54;;;;;;;3.65;1.27;;;9.30;99.90;;;;;;6185539;23;20175;-79
2020/12/14 07:22:22;;;;;;;5.18;1.50;;;9.30;99.90;;;;;;6185144;23;20153;-79
2020/12/14 07:24:59;;;;;;;3.15;1.35;;;9.30;99.90;;;;;;6183181;23;20154;-79
2020/12/14 07:27:29;;;;;;;4.47;1.38;;;9.20;99.90;;;;;;6182095;23;20248;-78
2020/12/14 07:30:07;;;;;;;4.28;1.50;;;9.20;99.90;;;;;;6182626;23;20169;-79
2020/12/14 07:32:33;;;;;;;2.95;1.13;;;9.30;99.90;;;;;;6183618;23;20205;-80
2020/12/14 07:35:00;;;;;;;2.78;1.48;;;9.20;99.90;;;;;;6182788;23;20160;-80
2020/12/14 07:37:28;;;;;;;1.67;1.33;;;9.20;99.90;;;;;;6182215;23;20165;-78
2020/12/14 07:39:54;;;;;;;4.60;1.20;;;9.30;99.90;;;;;;6182604;23;20170;-80
2020/12/14 07:42:32;;;;;;;2.70;1.07;;;9.30;99.90;;;;;;6181571;23;20216;-79
2020/12/14 07:45:13;;;;;;;2.85;1.17;;;9.40;99.90;;;;;;6182379;23;20603;-79
2020/12/14 07:47:40;;;;;;;2.95;1.33;;;9.40;99.90;;;;;;6185165;23;20187;-79
2020/12/14 07:50:14;;;;;;;1.83;0.90;;;9.40;99.90;;;;;;6182053;23;20216;-78
2020/12/14 07:52:42;;;;;;;5.22;1.23;;;9.50;99.90;;;;;;6182079;23;20168;-78
2020/12/14 07:55:10;;;;;;;5.47;1.85;;;9.50;99.90;;;;;;6181962;23;20160;-78
2020/12/14 07:57:38;;;;;;;2.30;1.08;;;9.50;99.90;;;;;;6181456;23;20146;-78
2020/12/14 08:00:12;;;;;;;2.30;1.20;;;9.50;99.90;;;;;;6181634;23;20177;-78
2020/12/14 08:02:40;;;;;;;4.85;1.23;;;9.40;99.90;;;;;;6181632;23;20193;-77
2020/12/14 08:05:12;;;;;;;2.67;1.20;;;9.40;99.90;;;;;;6181678;23;20628;-77
2020/12/14 08:07:50;;;;;;;1.75;1.10;;;9.30;99.90;;;;;;6180863;23;20162;-77
2020/12/14 08:10:29;;;;;;;1.80;1.10;;;9.20;99.90;;;;;;6181524;23;20165;-77
2020/12/14 08:12:57;;;;;;;2.67;1.10;;;9.10;99.90;;;;;;6153315;23;20140;-76
2020/12/14 08:15:24;;;;;;;2.78;1.30;;;9.10;99.90;;;;;;6181474;23;20131;-77
2020/12/14 08:17:50;;;;;;;3.72;1.30;;;9.00;99.90;;;;;;6181150;23;20232;-77
2020/12/14 08:20:30;;;;;;;2.15;1.10;;;9.00;99.90;;;;;;6181378;23;20208;-77
2020/12/14 08:22:59;;;;;;;3.78;1.40;;;9.00;99.90;;;;;;6185335;23;20149;-77
2020/12/14 08:25:27;;;;;;;1.90;1.00;;;9.00;99.90;;;;;;6181538;23;20468;-77
2020/12/14 08:28:03;;;;;;;2.88;1.13;;;8.90;99.90;;;;;;6153542;23;20676;-77
2020/12/14 08:30:31;;;;;;;3.17;1.30;;;9.00;99.90;;;;;;6180686;23;20168;-76
2020/12/14 08:33:07;;;;;;;4.80;1.80;;;8.90;99.90;;;;;;6154932;23;20142;-77
2020/12/14 08:35:33;;;;;;;6.03;1.40;;;9.00;99.90;;;;;;6181473;23;20134;-77
2020/12/14 08:38:14;;;;;;;2.78;1.42;;;9.00;99.90;;;;;;6153572;23;20150;-77
2020/12/14 08:40:56;;;;;;;3.65;2.08;;;9.00;99.90;;;;;;6154844;23;20527;-80
2020/12/14 08:43:24;;;;;;;1.48;0.93;;;9.00;99.90;;;;;;6181490;23;20157;-81
2020/12/14 08:46:02;;;;;;;3.75;1.50;;;9.00;99.90;;;;;;6155695;23;20134;-81
2020/12/14 08:48:40;;;;;;;2.33;1.40;;;9.00;99.90;;;;;;6180915;23;20513;-80
2020/12/14 08:51:09;;;;;;;8.23;2.08;;;9.00;99.90;;;;;;6181738;23;20191;-81
2020/12/14 08:53:35;;;;;;;4.38;1.20;;;9.00;99.90;;;;;;6182275;23;20146;-81
2020/12/14 08:56:05;;;;;;;2.63;1.13;;;9.10;99.90;;;;;;6182106;23;20194;-83
2020/12/14 08:58:30;;;;;;;3.78;1.40;;;9.10;99.90;;;;;;6181405;23;20196;-81
2020/12/14 09:01:08;;;;;;;2.30;1.35;;;9.10;99.90;;;;;;6165342;23;20177;-81
2020/12/14 09:03:49;;;;;;;2.22;1.67;;;9.10;99.90;;;;;;6166057;23;20130;-82
2020/12/14 09:06:27;;;;;;;2.75;1.10;;;9.20;99.90;;;;;;6190929;23;20146;-81
2020/12/14 09:09:01;;;;;;;4.07;1.95;;;9.20;99.90;;;;;;6187687;23;20130;-80
2020/12/14 09:11:29;;;;;;;4.50;2.05;;;9.20;99.90;;;;;;6165232;23;20693;-80
2020/12/14 09:13:59;;;;;;;2.63;1.30;;;9.20;99.90;;;;;;6187943;23;20146;-80
2020/12/14 09:16:26;;;;;;;2.70;1.60;;;9.20;99.90;;;;;;6189388;23;20138;-79
2020/12/14 09:18:52;;;;;;;4.30;1.80;;;9.40;99.90;;;;;;6164621;23;20192;-81
2020/12/14 09:21:20;;;;;;;2.35;1.15;;;9.40;99.90;;;;;;6164566;23;20586;-80
2020/12/14 09:24:19;;;;;;;3.10;1.48;;;9.30;99.90;;;;;;6163671;23;20572;-81
2020/12/14 09:26:47;;;;;;;2.40;1.30;;;9.30;99.90;;;;;;6191170;23;20158;-81
2020/12/14 09:29:13;;;;;;;3.05;1.45;;;9.30;99.90;;;;;;6189549;23;20224;-81
2020/12/14 09:31:46;;;;;;;5.55;1.85;;;9.30;99.90;;;;;;6190305;23;20169;-80
2020/12/14 09:34:12;;;;;;;3.40;1.75;;;9.30;99.90;;;;;;6190113;23;20134;-80
2020/12/14 09:36:38;;;;;;;2.70;1.60;;;9.30;99.90;;;;;;6139572;23;20154;-80
2020/12/14 09:39:04;;;;;;;4.67;1.53;;;9.40;99.90;;;;;;6192283;23;20206;-81
2020/12/14 09:41:31;;;;;;;2.65;1.20;;;9.40;99.90;;;;;;6199892;23;20177;-80
2020/12/14 09:43:58;;;;;;;3.78;1.45;;;9.40;99.90;;;;;;6207424;23;20146;-80
2020/12/14 09:46:28;;;;;;;3.17;1.40;;;9.40;99.90;;;;;;6203782;23;20180;-81
2020/12/14 09:48:56;;;;;;;5.72;1.40;;;9.50;99.90;;;;;;6184677;23;20145;-81
2020/12/14 09:51:22;;;;;;;3.35;1.33;;;9.50;99.90;;;;;;6160376;23;20220;-81
2020/12/14 09:53:48;;;;;;;3.05;1.30;;;9.60;99.90;;;;;;6183025;23;20176;-79
2020/12/14 09:56:14;;;;;;;4.28;1.30;;;9.60;99.90;;;;;;6182992;23;20146;-78
2020/12/14 09:58:40;;;;;;;4.10;1.42;;;9.70;99.90;;;;;;6182920;23;20166;-79
2020/12/14 10:01:07;;;;;;;2.23;1.70;;;9.80;99.90;;;;;;6183637;23;20169;-80
2020/12/14 10:03:33;;;;;;;3.00;1.60;;;9.80;99.90;;;;;;6185491;23;20634;-80
2020/12/14 10:06:00;;;;;;;2.97;1.50;;;9.90;99.90;;;;;;6158275;23;20153;-79
2020/12/14 10:08:27;;;;;;;4.82;1.60;;;10.00;99.90;;;;;;6184132;23;20246;-79
2020/12/14 10:10:55;;;;;;;3.27;1.37;;;10.00;99.90;;;;;;6183823;23;20531;-79
2020/12/14 10:13:24;;;;;;;4.40;1.20;;;10.20;99.90;;;;;;6184435;23;20165;-78
2020/12/14 10:15:52;;;;;;;3.55;1.17;;;10.30;99.90;;;;;;6189084;23;20545;-79
2020/12/14 10:18:18;;;;;;;5.18;1.50;;;10.40;99.90;;;;;;6186581;23;20150;-79
2020/12/14 10:20:45;;;;;;;3.90;1.35;;;10.50;99.90;;;;;;6183983;23;20157;-79
2020/12/14 10:23:11;;;;;;;2.10;1.10;;;10.60;99.90;;;;;;6184579;23;20146;-79
2020/12/14 10:25:37;;;;;;;2.67;1.10;;;10.80;99.90;;;;;;6157478;23;20149;-79
2020/12/14 10:28:04;;;;;;;3.10;1.13;;;10.80;99.90;;;;;;6183982;23;20181;-79
2020/12/14 10:30:30;;;;;;;1.98;1.30;;;10.90;99.90;;;;;;6183910;23;20557;-79
2020/12/14 10:32:57;;;;;;;3.35;1.83;;;11.00;99.90;;;;;;6183610;23;20216;-79
2020/12/14 10:35:43;;;;;;;;;;;;;;;;;;;;;
2020/12/14 10:38:45;;;;;;;2.63;1.70;;;11.10;99.90;;;;;;6182551;23;20154;-79
2020/12/14 10:42:00;;;;;;;2.75;1.42;;;11.20;99.90;;;;;;6115231;23;20252;-79
2020/12/14 10:45:20;;;;;;;1.90;1.15;;;11.20;99.90;;;;;;6182559;23;20185;-78
2020/12/14 10:47:47;;;;;;;2.97;1.35;;;11.20;99.90;;;;;;6119298;23;20598;-80
2020/12/14 10:50:17;;;;;;;2.75;1.30;;;11.30;99.90;;;;;;6178630;23;20259;-79
2020/12/14 10:52:46;;;;;;;4.07;2.00;;;11.30;99.90;;;;;;6186238;23;20149;-79
2020/12/14 10:55:14;;;;;;;4.90;1.35;;;11.40;99.90;;;;;;6155006;23;20222;-79
2020/12/14 10:57:59;;;;;;;7.82;2.40;;;11.40;99.90;;;;;;6181103;23;20217;-77
2020/12/14 11:01:20;;;;;;;9.52;4.43;;;11.40;99.90;;;;;;6148558;23;20183;-77
2020/12/14 11:03:57;;;;;;;6.65;1.40;;;11.40;99.90;;;;;;6182002;23;20784;-78
2020/12/14 11:06:32;;;;;;;3.33;1.75;;;11.50;99.90;;;;;;6180780;23;20186;-78
2020/12/14 11:09:04;;;;;;;4.90;1.70;;;11.50;99.90;;;;;;6181607;23;20153;-77
2020/12/14 11:11:32;;;;;;;2.83;1.65;;;11.70;99.90;;;;;;6155778;23;20236;-80
2020/12/14 11:14:02;;;;;;;5.03;1.73;;;11.70;99.90;;;;;;6156262;23;20158;-77
2020/12/14 11:16:30;;;;;;;4.07;1.83;;;11.90;99.90;;;;;;6182020;23;20172;-79
2020/12/14 11:19:04;;;;;;;5.50;2.45;;;11.90;99.90;;;;;;6181299;23;20585;-78
2020/12/14 11:21:38;;;;;;;9.40;2.75;;;12.00;99.90;;;;;;6181078;23;20255;-79
2020/12/14 11:24:07;;;;;;;2.73;1.80;;;12.20;99.90;;;;;;6182071;23;20146;-78
2020/12/14 11:26:33;;;;;;;3.13;1.48;;;12.20;99.90;;;;;;6181219;23;20869;-79
2020/12/14 11:29:05;;;;;;;3.03;1.45;;;12.40;99.90;;;;;;6160958;23;20644;-78
2020/12/14 11:31:38;;;;;;;3.05;1.20;;;12.40;99.90;;;;;;6182091;23;20236;-77
2020/12/14 11:34:12;;;;;;;2.45;1.00;;;12.50;99.90;;;;;;6157197;23;20440;-78
2020/12/14 11:36:52;;;;;;;3.30;1.25;;;12.60;99.90;;;;;;6181623;23;20227;-78
2020/12/14 11:39:36;;;;;;;2.50;1.20;;;12.60;99.90;;;;;;6182042;23;20208;-77
2020/12/14 11:45:58;;;;;;;2.55;1.08;;;12.50;99.90;;;;;;6186145;23;20138;-78
2020/12/14 11:48:43;;;;;;;1.88;1.38;;;12.40;99.90;;;;;;6186211;23;20181;-78
2020/12/14 11:54:46;;;;;;;;;;;;;;;;;;;;;
2020/12/14 11:57:12;;;;;;;3.05;1.48;;;12.40;99.90;;;;;;6183627;23;20140;-77
2020/12/14 11:59:38;;;;;;;4.93;3.53;;;12.50;99.90;;;;;;6130951;23;20146;-77
2020/12/14 12:02:07;;;;;;;3.50;1.33;;;12.50;99.90;;;;;;6155734;23;20150;-77
2020/12/14 12:04:33;;;;;;;2.50;1.45;;;12.50;99.90;;;;;;6181406;23;20157;-79
2020/12/14 12:07:06;;;;;;;3.50;1.33;;;12.50;99.90;;;;;;6187136;23;20184;-78
2020/12/14 12:09:38;;;;;;;2.95;1.25;;;12.40;99.90;;;;;;6181278;23;20126;-77
2020/12/14 12:12:33;;;;;;;2.28;1.35;;;12.50;99.90;;;;;;6181309;23;20150;-77
2020/12/14 12:15:15;;;;;;;2.63;1.35;;;12.40;99.90;;;;;;6178160;23;20154;-77
2020/12/14 12:21:21;;;;;;;2.10;1.20;;;12.50;99.90;;;;;;6173144;23;20204;-79
2020/12/14 12:24:50;;;;;;;2.75;1.15;;;12.40;99.90;;;;;;6154781;23;20158;-78
2020/12/14 12:27:34;;;;;;;2.03;1.13;;;12.40;99.90;;;;;;6156366;23;20184;-78
2020/12/14 12:30:20;;;;;;;6.68;1.70;;;12.50;99.90;;;;;;6156423;23;20249;-78
2020/12/14 12:33:43;;;;;;;4.60;1.70;;;12.50;99.90;;;;;;6154912;23;20165;-78
2020/12/14 12:36:29;;;;;;;3.35;1.90;;;12.50;99.90;;;;;;6120754;23;20143;-77
2020/12/14 12:40:00;;;;;;;2.53;1.50;;;12.60;99.90;;;;;;6179613;23;20203;-78
2020/12/14 12:43:59;;;;;;;2.55;1.40;;;12.50;99.90;;;;;;6153614;23;20151;-78
2020/12/14 12:47:01;;;;;;;1.98;1.10;;;12.60;99.90;;;;;;6179993;23;20452;-79
2020/12/14 12:50:02;;;;;;;1.65;1.10;;;12.60;99.90;;;;;;6097716;23;20531;-77
2020/12/14 12:53:16;;;;;;;3.92;1.60;;;12.60;99.90;;;;;;6121123;23;20540;-80
2020/12/14 12:56:31;;;;;;;2.55;1.40;;;12.60;99.90;;;;;;6096801;23;20506;-79
2020/12/14 12:59:50;;;;;;;5.40;1.65;;;12.60;99.90;;;;;;6121499;23;20155;-78
2020/12/14 13:06:43;;;;;;;2.33;1.00;;;12.60;99.90;;;;;;6102164;23;20160;-79
2020/12/14 13:10:01;;;;;;;2.30;0.93;;;12.60;99.90;;;;;;6149821;23;20169;-79
2020/12/14 13:12:33;;;;;;;6.47;3.17;;;12.60;99.90;;;;;;6132739;23;20185;-79
2020/12/14 13:14:59;;;;;;;6.50;4.32;;;12.70;99.90;;;;;;6157258;23;20157;-79
2020/12/14 13:17:25;;;;;;;4.33;2.53;;;12.70;99.90;;;;;;6155893;23;20463;-78
2020/12/14 13:19:51;;;;;;;5.30;2.97;;;12.80;99.90;;;;;;6185811;23;20169;-79
2020/12/14 13:22:17;;;;;;;3.70;1.70;;;12.80;99.90;;;;;;6181865;23;21050;-80
2020/12/14 13:24:43;;;;;;;3.10;1.83;;;13.00;99.90;;;;;;6183458;23;20521;-78
2020/12/14 13:27:09;;;;;;;3.20;1.48;;;13.00;99.90;;;;;;6129923;23;20181;-79
2020/12/14 13:29:35;;;;;;;4.23;1.40;;;13.10;99.90;;;;;;6181939;23;20277;-79
2020/12/14 13:32:00;;;;;;;2.63;1.20;;;13.00;99.90;;;;;;6182586;23;20537;-78
2020/12/14 13:34:28;;;;;;;4.35;1.48;;;13.00;99.90;;;;;;6182740;23;20149;-78
2020/12/14 13:36:56;;;;;;;5.37;1.40;;;13.10;99.90;;;;;;6182688;23;20145;-77
2020/12/14 13:39:23;;;;;;;2.50;1.20;;;13.10;99.90;;;;;;6154204;23;20526;-78
2020/12/14 13:41:49;;;;;;;3.95;1.20;;;13.10;99.90;;;;;;6155751;23;20192;-78
2020/12/14 13:44:14;;;;;;;3.43;1.60;;;13.10;99.90;;;;;;6182653;23;20161;-78
2020/12/14 13:46:40;;;;;;;2.80;1.23;;;13.10;99.90;;;;;;6182767;23;20510;-77
2020/12/14 13:49:07;;;;;;;2.80;1.60;;;13.10;99.90;;;;;;6155480;23;20795;-77
2020/12/14 13:51:33;;;;;;;7.50;3.95;;;13.10;99.90;;;;;;6181845;23;20162;-77
2020/12/14 13:53:59;;;;;;;3.37;2.10;;;13.10;99.90;;;;;;6182534;23;20496;-78